Time;durP1;ratioP1;P1;durP2;ratioP2;P2;SDS_P1;SDS_P2;PMS_P1;PMS_P2;Temp;Humidity;BMP_temperature;BMP_pressure;BME280_temperature;BME280_humidity;BME280_pressure;Samples;Min_cycle;Max_cycle;Signal;HPM_P1;HPM_P2
2023/06/04 00:00:03;;;;;;;10.10;3.70;;;;;;;9.70;56.71;98325.67;106972;1277;22592;-79
2023/06/04 00:02:32;;;;;;;5.60;3.30;;;;;;;9.67;56.52;98321.36;106593;1277;22515;-80
2023/06/04 00:05:01;;;;;;;5.20;3.90;;;;;;;9.62;56.60;98317.95;107007;1277;22518;-79
2023/06/04 00:07:29;;;;;;;5.20;3.60;;;;;;;9.58;57.08;98314.48;106894;1277;22521;-79
2023/06/04 00:09:57;;;;;;;4.10;3.10;;;;;;;9.53;57.51;98310.38;106912;1277;25223;-79
2023/06/04 00:12:25;;;;;;;5.00;3.40;;;;;;;9.47;56.91;98304.77;106632;1277;24066;-79
2023/06/04 00:14:53;;;;;;;6.00;3.30;;;;;;;9.42;57.39;98301.48;106720;1277;22544;-79
2023/06/04 00:17:21;;;;;;;5.20;3.40;;;;;;;9.37;57.40;98302.21;106840;1277;23535;-80
2023/06/04 00:19:49;;;;;;;5.00;3.40;;;;;;;9.31;57.68;98300.22;106891;1277;24084;-79
2023/06/04 00:22:17;;;;;;;5.30;3.40;;;;;;;9.25;57.51;98302.19;106615;1277;22632;-79
2023/06/04 00:24:45;;;;;;;6.70;3.80;;;;;;;9.21;57.58;98298.29;106590;1277;22513;-79
2023/06/04 00:27:13;;;;;;;5.00;3.50;;;;;;;9.16;57.86;98291.89;106726;1277;23886;-80
2023/06/04 00:29:41;;;;;;;5.60;3.90;;;;;;;9.12;58.01;98292.34;107029;1277;22636;-80
2023/06/04 00:32:09;;;;;;;6.20;3.60;;;;;;;9.06;58.40;98294.36;106701;1277;22638;-80
2023/06/04 00:34:38;;;;;;;6.00;4.00;;;;;;;9.01;58.22;98291.23;106572;1277;26815;-80
2023/06/04 00:37:06;;;;;;;4.70;3.50;;;;;;;8.95;58.31;98290.62;106582;1277;24373;-79
2023/06/04 00:39:34;;;;;;;8.30;3.80;;;;;;;8.89;58.87;98288.52;106838;1277;25462;-79
2023/06/04 00:42:02;;;;;;;5.40;3.80;;;;;;;8.83;58.58;98291.81;106760;1277;24252;-79
2023/06/04 00:44:30;;;;;;;7.30;3.70;;;;;;;8.79;58.71;98286.95;106662;1277;22937;-79
2023/06/04 00:46:59;;;;;;;8.20;3.50;;;;;;;8.76;58.56;98288.19;106583;1277;22637;-80
2023/06/04 00:49:27;;;;;;;7.00;3.90;;;;;;;8.77;58.96;98287.14;106894;1277;23019;-80
2023/06/04 00:51:55;;;;;;;8.10;3.70;;;;;;;8.80;59.27;98284.64;106973;1277;24084;-80
2023/06/04 00:54:24;;;;;;;8.40;4.30;;;;;;;8.83;59.61;98283.71;106850;1277;24898;-80
2023/06/04 00:56:52;;;;;;;9.30;4.40;;;;;;;8.83;59.63;98283.87;106973;1277;24305;-80
2023/06/04 00:59:20;;;;;;;5.60;3.70;;;;;;;8.82;59.37;98282.27;106811;1277;24200;-80
2023/06/04 01:01:51;;;;;;;4.10;3.20;;;;;;;8.82;59.60;98282.54;106953;1277;22540;-80
2023/06/04 01:04:27;;;;;;;5.80;4.00;;;;;;;8.80;60.21;98285.98;106893;1277;24364;-80
2023/06/04 01:07:00;;;;;;;8.50;3.90;;;;;;;8.79;59.97;98282.48;106646;1277;25531;-80
2023/06/04 01:09:29;;;;;;;7.00;4.00;;;;;;;8.79;59.99;98284.09;106964;1277;22594;-80
2023/06/04 01:11:58;;;;;;;6.60;4.10;;;;;;;8.79;59.86;98282.65;106752;1277;24064;-81
2023/06/04 01:14:26;;;;;;;6.60;4.00;;;;;;;8.78;59.91;98283.04;107017;1277;27048;-80
2023/06/04 01:17:02;;;;;;;7.30;4.60;;;;;;;8.77;59.97;98278.69;106906;1277;22521;-81
2023/06/04 01:20:04;;;;;;;6.60;4.30;;;;;;;8.75;60.11;98280.90;106994;1277;22587;-81
2023/06/04 01:22:48;;;;;;;5.70;4.30;;;;;;;8.71;60.43;98277.75;106682;1277;22633;-79
2023/06/04 01:25:23;;;;;;;5.90;4.10;;;;;;;8.68;60.56;98273.20;106510;1277;22657;-79
2023/06/04 01:27:56;;;;;;;6.70;4.20;;;;;;;8.65;60.51;98277.30;106741;1277;22563;-81
2023/06/04 01:30:28;;;;;;;13.00;4.60;;;;;;;8.62;60.77;98272.70;106914;1277;22576;-81
2023/06/04 01:32:56;;;;;;;8.60;4.40;;;;;;;8.63;60.84;98271.50;106934;1277;22570;-81
2023/06/04 01:35:26;;;;;;;6.50;4.40;;;;;;;8.66;61.12;98272.40;106733;1277;25379;-81
2023/06/04 01:37:56;;;;;;;7.50;4.20;;;;;;;8.69;61.09;98267.66;106860;1277;22737;-81
2023/06/04 01:40:25;;;;;;;6.20;4.20;;;;;;;8.71;61.69;98269.48;107058;1277;22703;-79
2023/06/04 01:42:54;;;;;;;7.10;4.30;;;;;;;8.71;61.44;98271.10;107034;1277;22735;-80
2023/06/04 01:45:23;;;;;;;7.70;4.80;;;;;;;8.70;61.78;98271.42;107049;1277;25406;-81
2023/06/04 01:47:51;;;;;;;8.50;4.50;;;;;;;8.70;61.75;98274.70;107050;1277;22548;-81
2023/06/04 01:50:20;;;;;;;5.80;4.00;;;;;;;8.69;61.57;98270.14;107050;1277;22706;-81
2023/06/04 01:52:49;;;;;;;6.70;4.50;;;;;;;8.68;61.80;98265.67;107037;1277;25403;-81
2023/06/04 01:55:17;;;;;;;8.10;4.90;;;;;;;8.67;61.54;98264.92;106810;1277;23898;-80
2023/06/04 01:57:47;;;;;;;6.30;4.50;;;;;;;8.67;61.79;98264.55;106871;1277;25497;-80
2023/06/04 02:00:15;;;;;;;11.20;4.50;;;;;;;8.67;61.93;98264.71;106812;1277;23504;-80
2023/06/04 02:02:46;;;;;;;7.70;4.80;;;;;;;8.68;62.19;98262.19;106809;1277;25507;-80
2023/06/04 02:05:15;;;;;;;8.10;4.80;;;;;;;8.69;62.16;98260.52;107075;1277;26535;-80
2023/06/04 02:07:45;;;;;;;7.90;5.00;;;;;;;8.70;62.07;98264.05;107029;1277;23887;-80
2023/06/04 02:10:16;;;;;;;9.00;4.70;;;;;;;8.71;62.09;98258.25;106891;1277;22534;-80
2023/06/04 02:12:59;;;;;;;6.40;4.80;;;;;;;8.73;62.12;98258.02;106932;1266;22648;-80
2023/06/04 02:15:29;;;;;;;9.90;4.50;;;;;;;8.73;62.22;98257.31;106888;1277;24078;-80
2023/06/04 02:18:15;;;;;;;6.50;4.60;;;;;;;8.74;62.65;98257.98;106715;1277;22505;-80
2023/06/04 02:20:45;;;;;;;7.50;4.70;;;;;;;8.74;62.63;98261.19;107039;1277;23890;-80
2023/06/04 02:23:14;;;;;;;9.70;4.60;;;;;;;8.76;64.15;98261.08;106984;1277;23898;-80
2023/06/04 02:25:46;;;;;;;6.90;4.90;;;;;;;8.72;64.38;98264.58;106901;1277;24061;-81
2023/06/04 02:28:14;;;;;;;6.30;4.30;;;;;;;8.68;63.82;98262.67;106592;1277;25262;-81
2023/06/04 02:30:45;;;;;;;7.80;4.70;;;;;;;8.63;63.77;98263.61;106555;1277;25284;-81
2023/06/04 02:33:14;;;;;;;7.90;4.60;;;;;;;8.60;63.73;98265.51;106964;1277;25313;-81
2023/06/04 02:35:42;;;;;;;6.50;5.00;;;;;;;8.53;63.88;98266.45;106854;1277;24111;-82
2023/06/04 02:38:10;;;;;;;6.50;4.30;;;;;;;8.45;64.03;98266.17;106765;1277;24235;-81
2023/06/04 02:40:39;;;;;;;8.20;5.10;;;;;;;8.38;64.05;98263.55;106851;1277;22542;-81
2023/06/04 02:43:07;;;;;;;7.90;4.70;;;;;;;8.32;64.14;98262.97;106759;1277;25312;-81
2023/06/04 02:45:35;;;;;;;6.20;4.50;;;;;;;8.27;64.23;98262.02;106791;1277;24334;-81
2023/06/04 02:48:03;;;;;;;6.70;4.90;;;;;;;8.25;63.98;98260.52;107006;1277;22612;-81
2023/06/04 02:50:31;;;;;;;6.60;5.20;;;;;;;8.21;64.30;98264.94;106800;1277;22525;-81
2023/06/04 02:52:59;;;;;;;6.80;4.90;;;;;;;8.18;64.27;98264.69;106771;1277;25256;-80
2023/06/04 02:55:27;;;;;;;6.80;4.90;;;;;;;8.19;64.50;98265.38;106740;1277;22536;-80
2023/06/04 02:57:56;;;;;;;7.70;4.50;;;;;;;8.23;64.84;98266.13;106623;1277;25322;-80
2023/06/04 03:00:25;;;;;;;8.70;4.50;;;;;;;8.27;65.12;98262.66;106856;1277;22627;-80
2023/06/04 03:03:00;;;;;;;6.80;4.80;;;;;;;8.21;65.27;98249.38;106826;1277;22996;-80
2023/06/04 03:05:32;;;;;;;7.30;4.40;;;;;;;8.27;64.88;98260.69;106901;1277;22616;-81
2023/06/04 03:08:02;;;;;;;8.30;4.50;;;;;;;8.26;64.84;98259.08;106508;1277;22787;-80
2023/06/04 03:10:31;;;;;;;5.90;4.20;;;;;;;8.23;64.71;98259.73;106687;1275;23950;-80
2023/06/04 03:12:59;;;;;;;7.50;4.10;;;;;;;8.22;64.90;98257.27;106613;1277;22524;-80
2023/06/04 03:15:27;;;;;;;6.80;4.50;;;;;;;8.21;65.21;98255.27;106627;1277;22629;-80
2023/06/04 03:17:55;;;;;;;7.30;4.60;;;;;;;8.23;65.48;98258.60;106552;1277;22511;-80
2023/06/04 03:20:24;;;;;;;5.70;3.80;;;;;;;8.24;65.30;98261.83;107035;1277;22525;-80
2023/06/04 03:22:52;;;;;;;6.00;4.40;;;;;;;8.27;65.46;98261.23;106646;1277;22521;-79
2023/06/04 03:25:20;;;;;;;6.50;4.50;;;;;;;8.31;65.22;98263.20;106704;1277;22523;-80
2023/06/04 03:27:48;;;;;;;8.70;4.10;;;;;;;8.35;65.09;98265.32;106871;1277;22550;-80
2023/06/04 03:30:17;;;;;;;8.70;4.10;;;;;;;8.43;65.43;98262.30;107050;1275;22516;-80
2023/06/04 03:32:55;;;;;;;7.30;4.50;;;;;;;8.55;65.16;98270.15;107305;1277;22588;-80
2023/06/04 03:35:23;;;;;;;7.20;4.50;;;;;;;8.68;65.68;98271.36;107437;1277;25351;-80
2023/06/04 03:37:51;;;;;;;6.20;4.40;;;;;;;8.78;65.62;98272.61;107025;1277;23641;-79
2023/06/04 03:40:20;;;;;;;7.50;4.40;;;;;;;8.89;65.33;98270.45;106954;1277;22582;-79
2023/06/04 03:42:48;;;;;;;5.70;3.80;;;;;;;8.96;65.44;98271.16;106955;1277;22519;-79
2023/06/04 03:45:18;;;;;;;7.40;4.30;;;;;;;9.05;65.34;98273.58;106738;1277;22517;-80
2023/06/04 03:47:46;;;;;;;6.50;4.20;;;;;;;9.12;65.29;98274.00;106459;1277;22987;-80
2023/06/04 03:50:15;;;;;;;7.00;4.40;;;;;;;9.17;65.38;98276.82;106933;1278;22667;-79
2023/06/04 03:52:43;;;;;;;7.20;4.60;;;;;;;9.24;65.43;98276.23;106538;1277;22630;-79
2023/06/04 03:55:11;;;;;;;7.00;3.90;;;;;;;9.31;65.30;98275.95;106802;1277;22644;-79
2023/06/04 03:57:40;;;;;;;8.00;4.20;;;;;;;9.37;64.97;98281.08;106944;1277;22636;-79
2023/06/04 04:00:12;;;;;;;6.70;4.00;;;;;;;9.44;64.98;98279.10;106871;1277;22731;-79
2023/06/04 04:02:40;;;;;;;6.50;4.40;;;;;;;9.51;65.02;98279.73;106948;1277;24247;-79
2023/06/04 04:05:14;;;;;;;7.40;4.00;;;;;;;9.59;64.92;98279.13;106899;1277;22588;-79
2023/06/04 04:07:47;;;;;;;15.30;4.90;;;;;;;9.68;64.74;98282.17;106757;1277;22529;-79
2023/06/04 04:10:16;;;;;;;5.70;3.90;;;;;;;9.78;64.66;98281.42;107007;1277;22525;-79
2023/06/04 04:12:44;;;;;;;8.60;4.20;;;;;;;9.86;64.87;98280.38;107023;1277;25396;-79
2023/06/04 04:15:13;;;;;;;5.30;4.10;;;;;;;9.95;64.96;98278.45;106862;1277;25326;-79
2023/06/04 04:17:42;;;;;;;8.50;4.60;;;;;;;10.05;64.88;98280.61;106645;1278;25390;-79
2023/06/04 04:20:11;;;;;;;8.50;4.20;;;;;;;10.16;65.02;98274.69;106729;1277;22560;-79
2023/06/04 04:22:44;;;;;;;5.80;4.10;;;;;;;10.27;64.76;98270.48;106797;1277;22606;-79
2023/06/04 04:25:13;;;;;;;6.50;4.20;;;;;;;10.38;64.87;98267.95;106754;1277;24225;-79
2023/06/04 04:27:41;;;;;;;6.70;4.20;;;;;;;10.48;64.49;98263.50;106888;1277;22531;-79
2023/06/04 04:30:12;;;;;;;7.90;4.10;;;;;;;10.59;64.40;98266.33;106910;1277;22571;-79
2023/06/04 04:32:48;;;;;;;6.60;4.10;;;;;;;10.71;64.31;98266.06;106523;1277;22681;-79
2023/06/04 04:35:23;;;;;;;6.50;4.20;;;;;;;10.81;64.17;98263.64;106613;1277;25358;-79
2023/06/04 04:37:53;;;;;;;7.30;4.20;;;;;;;10.93;64.05;98265.60;106560;1277;25359;-79
2023/06/04 04:40:22;;;;;;;6.20;4.20;;;;;;;11.03;63.90;98266.26;106757;1277;25275;-79
2023/06/04 04:42:51;;;;;;;6.20;3.70;;;;;;;11.14;63.75;98269.92;106811;1277;25281;-79
2023/06/04 04:45:19;;;;;;;9.60;3.60;;;;;;;11.25;63.43;98270.30;106560;1277;22620;-79
2023/06/04 04:47:50;;;;;;;6.50;4.10;;;;;;;11.33;62.98;98272.87;106919;1277;22628;-79
2023/06/04 04:50:19;;;;;;;5.60;3.60;;;;;;;11.43;62.92;98279.89;106957;1277;22789;-79
2023/06/04 04:52:47;;;;;;;6.00;3.90;;;;;;;11.52;62.88;98278.23;106739;1277;22731;-79
2023/06/04 04:55:15;;;;;;;7.70;4.00;;;;;;;11.63;62.91;98281.71;106982;1277;23276;-79
2023/06/04 04:57:44;;;;;;;5.70;4.00;;;;;;;11.72;62.64;98283.27;107246;1277;23301;-79
2023/06/04 05:00:14;;;;;;;17.70;5.30;;;;;;;11.83;62.56;98283.05;107171;1277;22575;-80
2023/06/04 05:02:44;;;;;;;8.90;3.80;;;;;;;11.95;62.37;98285.30;107155;1277;22765;-81
2023/06/04 05:05:12;;;;;;;6.60;3.70;;;;;;;12.06;62.41;98287.09;106850;1277;24260;-81
2023/06/04 05:07:41;;;;;;;6.10;3.50;;;;;;;12.17;62.09;98283.38;106654;1277;22536;-79
2023/06/04 05:10:09;;;;;;;7.00;3.70;;;;;;;12.26;61.83;98287.14;106731;1277;25450;-79
2023/06/04 05:12:37;;;;;;;4.90;3.50;;;;;;;12.38;61.74;98294.59;106799;1277;25303;-79
2023/06/04 05:15:07;;;;;;;6.70;3.60;;;;;;;12.50;61.71;98296.83;106774;1278;22564;-79
2023/06/04 05:17:35;;;;;;;10.90;4.00;;;;;;;12.60;61.21;98297.23;106748;1278;22613;-79
2023/06/04 05:20:11;;;;;;;6.10;3.70;;;;;;;12.67;60.82;98297.30;106763;1278;22541;-79
2023/06/04 05:22:43;;;;;;;6.30;3.30;;;;;;;12.77;60.94;98295.29;106729;1273;25529;-79
2023/06/04 05:25:12;;;;;;;7.20;3.70;;;;;;;12.88;60.47;98296.35;106905;1255;22557;-79
2023/06/04 05:27:40;;;;;;;5.30;3.60;;;;;;;12.96;60.51;98299.71;107130;1277;22567;-79
2023/06/04 05:30:10;;;;;;;7.50;3.80;;;;;;;13.07;60.29;98297.84;107093;1278;22554;-79
2023/06/04 05:32:40;;;;;;;6.50;3.90;;;;;;;13.18;60.09;98299.20;106863;1278;22543;-79
2023/06/04 05:35:11;;;;;;;5.80;3.70;;;;;;;13.30;60.07;98299.07;106796;1277;23036;-80
2023/06/04 05:37:41;;;;;;;5.30;3.60;;;;;;;13.38;59.55;98305.11;107011;1277;22531;-80
2023/06/04 05:40:12;;;;;;;5.50;3.50;;;;;;;13.48;59.54;98307.58;106850;1258;22579;-80
2023/06/04 05:42:41;;;;;;;4.10;3.60;;;;;;;13.58;59.40;98309.05;106851;1278;23536;-80
2023/06/04 05:45:09;;;;;;;7.50;4.10;;;;;;;13.65;58.82;98300.89;107036;1277;22982;-80
2023/06/04 05:47:38;;;;;;;6.40;3.30;;;;;;;13.71;59.05;98304.75;106907;1277;25294;-80
2023/06/04 05:50:06;;;;;;;7.30;4.30;;;;;;;13.78;58.71;98305.10;106711;1278;22734;-80
2023/06/04 05:52:36;;;;;;;5.70;3.50;;;;;;;13.84;58.29;98308.74;106724;1277;158200;-80
2023/06/04 05:55:07;;;;;;;5.50;3.40;;;;;;;13.88;58.17;98309.89;106776;1277;22718;-80
2023/06/04 05:57:36;;;;;;;6.80;3.50;;;;;;;13.94;57.75;98312.73;106914;1277;22530;-80
2023/06/04 06:00:11;;;;;;;6.50;3.40;;;;;;;13.99;57.53;98314.21;106872;1277;24281;-80
2023/06/04 06:02:43;;;;;;;7.10;3.40;;;;;;;14.06;56.73;98312.89;106902;1277;22597;-80
2023/06/04 06:05:18;;;;;;;5.30;3.80;;;;;;;14.13;56.90;98316.36;106925;1277;22558;-79
2023/06/04 06:07:47;;;;;;;8.60;4.20;;;;;;;14.21;57.08;98319.39;106753;1277;22659;-80
2023/06/04 06:10:16;;;;;;;7.90;3.70;;;;;;;14.28;56.31;98320.45;106621;1277;22541;-80
2023/06/04 06:12:44;;;;;;;8.30;3.90;;;;;;;14.37;56.48;98324.20;106643;1277;22573;-80
2023/06/04 06:15:12;;;;;;;8.50;3.70;;;;;;;14.47;56.15;98325.85;106916;1277;24278;-80
2023/06/04 06:17:42;;;;;;;6.40;3.00;;;;;;;14.53;55.34;98327.88;106645;1277;22802;-82
2023/06/04 06:20:12;;;;;;;8.70;4.10;;;;;;;14.58;54.96;98329.32;106983;1277;25430;-80
2023/06/04 06:22:40;;;;;;;7.00;3.50;;;;;;;14.61;54.07;98327.23;107120;1278;22521;-80
2023/06/04 06:25:08;;;;;;;7.10;3.30;;;;;;;14.64;54.68;98328.70;107175;1267;22524;-79
2023/06/04 06:27:44;;;;;;;7.10;3.10;;;;;;;14.74;54.42;98326.41;107049;1277;22694;-79
2023/06/04 06:30:14;;;;;;;5.40;3.20;;;;;;;14.80;53.40;98332.39;106534;1277;22644;-79
2023/06/04 06:32:48;;;;;;;5.20;3.40;;;;;;;14.84;53.00;98333.67;106699;1277;25390;-80
2023/06/04 06:35:17;;;;;;;7.50;3.20;;;;;;;14.90;53.21;98333.28;106829;1278;22532;-80
2023/06/04 06:37:45;;;;;;;15.10;3.70;;;;;;;14.99;53.44;98332.15;106723;1278;22940;-80
2023/06/04 06:40:13;;;;;;;5.30;3.50;;;;;;;15.12;53.25;98338.61;106898;1277;25406;-80
2023/06/04 06:42:41;;;;;;;8.40;3.40;;;;;;;15.18;52.15;98335.80;106909;1276;22768;-83
2023/06/04 06:45:09;;;;;;;7.10;3.30;;;;;;;15.21;52.12;98342.16;106955;1277;22528;-82
2023/06/04 06:47:37;;;;;;;5.90;3.30;;;;;;;15.26;52.27;98342.84;106973;1276;24477;-82
2023/06/04 06:50:06;;;;;;;9.30;3.40;;;;;;;15.35;51.98;98346.84;106968;1277;22657;-82
2023/06/04 06:52:34;;;;;;;9.30;3.40;;;;;;;15.41;51.95;98346.10;106926;1277;22524;-82
2023/06/04 06:55:04;;;;;;;8.60;3.80;;;;;;;15.51;52.03;98345.94;106917;1278;24190;-82
2023/06/04 06:57:33;;;;;;;6.50;3.50;;;;;;;15.63;52.01;98348.86;106791;1277;25396;-82
2023/06/04 07:00:03;;;;;;;8.00;3.80;;;;;;;15.76;50.97;98351.98;106904;1266;22637;-81
2023/06/04 07:02:31;;;;;;;6.80;3.70;;;;;;;15.80;50.29;98348.38;107126;1277;22547;-81
2023/06/04 07:05:00;;;;;;;10.00;3.30;;;;;;;15.81;49.85;98351.58;107391;1278;22562;-79
2023/06/04 07:07:28;;;;;;;10.20;3.50;;;;;;;15.85;50.17;98348.70;107244;1277;24241;-78
2023/06/04 07:09:56;;;;;;;6.20;3.30;;;;;;;15.93;50.09;98347.44;106725;1277;24716;-79
2023/06/04 07:12:24;;;;;;;7.20;3.10;;;;;;;16.02;49.46;98347.20;106825;1277;22557;-75
2023/06/04 07:14:52;;;;;;;7.30;3.60;;;;;;;16.14;49.15;98347.04;106599;1277;22515;-74
2023/06/04 07:17:20;;;;;;;11.70;3.30;;;;;;;16.30;49.11;98348.23;106604;1277;24214;-74
2023/06/04 07:19:48;;;;;;;9.40;3.30;;;;;;;16.47;48.93;98349.06;106595;1277;24074;-73
2023/06/04 07:22:16;;;;;;;9.30;3.50;;;;;;;16.64;48.83;98345.89;106618;1277;22517;-74
2023/06/04 07:24:44;;;;;;;6.00;3.10;;;;;;;16.75;48.56;98344.08;106692;1278;24491;-74
2023/06/04 07:27:13;;;;;;;8.30;3.20;;;;;;;16.83;48.68;98344.95;106715;1277;25283;-74
2023/06/04 07:29:44;;;;;;;9.20;3.00;;;;;;;16.96;48.19;98344.98;106674;1277;23868;-78
2023/06/04 07:32:13;;;;;;;6.90;3.10;;;;;;;17.06;47.77;98348.11;106896;1277;23320;-79
2023/06/04 07:34:41;;;;;;;5.80;3.00;;;;;;;17.14;47.30;98342.88;106863;1273;22557;-80
2023/06/04 07:37:09;;;;;;;11.20;3.30;;;;;;;17.30;47.11;98342.41;106858;1277;22766;-80
2023/06/04 07:39:38;;;;;;;8.30;3.00;;;;;;;17.48;46.69;98346.58;106883;1277;24238;-80
2023/06/04 07:42:07;;;;;;;9.30;3.00;;;;;;;17.58;47.22;98346.09;106917;1277;23954;-80
2023/06/04 07:44:37;;;;;;;8.50;3.00;;;;;;;17.66;46.93;98340.52;107047;1278;22562;-79
2023/06/04 07:47:05;;;;;;;7.90;2.90;;;;;;;17.79;46.41;98337.80;106925;1277;24254;-80
2023/06/04 07:49:33;;;;;;;5.50;3.00;;;;;;;17.85;45.88;98346.46;106720;1277;22520;-80
2023/06/04 07:52:01;;;;;;;7.00;2.90;;;;;;;17.92;45.34;98345.36;106479;1277;22634;-80
2023/06/04 07:54:29;;;;;;;7.60;3.10;;;;;;;17.99;44.72;98346.92;106627;1277;24184;-79
2023/06/04 07:56:58;;;;;;;7.30;3.20;;;;;;;18.08;45.15;98349.41;106941;1277;24807;-80
2023/06/04 07:59:26;;;;;;;6.80;2.80;;;;;;;18.15;44.95;98350.28;106847;1277;22527;-80
2023/06/04 08:01:54;;;;;;;5.00;2.80;;;;;;;18.22;44.21;98353.47;106612;1277;24376;-80
2023/06/04 08:04:22;;;;;;;5.30;2.50;;;;;;;18.30;44.02;98357.35;106502;1277;22535;-79
2023/06/04 08:06:51;;;;;;;6.60;2.80;;;;;;;18.40;43.32;98358.16;106638;1277;22522;-79
2023/06/04 08:09:19;;;;;;;4.50;2.50;;;;;;;18.48;43.56;98359.04;106696;1277;22531;-79
2023/06/04 08:11:48;;;;;;;8.20;2.60;;;;;;;18.54;42.91;98363.38;106893;1277;22630;-79
2023/06/04 08:14:17;;;;;;;4.70;2.60;;;;;;;18.58;43.44;98359.59;106697;1277;23024;-79
2023/06/04 08:16:45;;;;;;;5.40;2.50;;;;;;;18.64;42.54;98361.67;106707;1277;25271;-79
2023/06/04 08:19:13;;;;;;;5.70;2.60;;;;;;;18.74;42.59;98362.85;106611;1274;26583;-79
2023/06/04 08:21:41;;;;;;;5.80;2.80;;;;;;;18.83;42.22;98358.55;106730;1277;22521;-80
2023/06/04 08:24:10;;;;;;;5.30;2.60;;;;;;;18.94;42.26;98366.54;106973;1277;24107;-79
2023/06/04 08:26:38;;;;;;;6.80;2.80;;;;;;;18.98;41.24;98365.30;106609;1277;22528;-79
2023/06/04 08:29:06;;;;;;;9.70;3.10;;;;;;;19.05;41.50;98366.41;106528;1277;25458;-80
2023/06/04 08:31:34;;;;;;;8.10;2.50;;;;;;;19.15;41.81;98366.08;107047;1273;22522;-80
2023/06/04 08:34:05;;;;;;;12.30;2.60;;;;;;;19.27;40.95;98365.36;106927;1277;22632;-80
2023/06/04 08:36:33;;;;;;;6.00;2.50;;;;;;;19.32;40.40;98360.11;106707;1277;24284;-80
2023/06/04 08:39:01;;;;;;;6.30;2.70;;;;;;;19.34;40.61;98366.28;106770;1277;22971;-80
2023/06/04 08:41:48;;;;;;;7.50;3.00;;;;;;;19.44;39.75;98361.34;106960;1277;22525;-80
2023/06/04 08:44:17;;;;;;;5.50;2.30;;;;;;;19.46;39.21;98362.17;106669;1277;22520;-80
2023/06/04 08:46:51;;;;;;;8.20;2.70;;;;;;;19.47;39.56;98364.63;106576;1277;22631;-80
2023/06/04 08:49:21;;;;;;;6.00;2.40;;;;;;;19.56;38.66;98362.55;106723;1277;24246;-80
2023/06/04 08:51:49;;;;;;;5.00;2.30;;;;;;;19.67;38.92;98364.76;106933;1277;23019;-80
2023/06/04 08:54:17;;;;;;;9.50;2.80;;;;;;;19.79;39.30;98363.70;106889;1277;22676;-80
2023/06/04 08:56:46;;;;;;;6.60;2.80;;;;;;;19.96;38.19;98368.77;106967;1277;24224;-80
2023/06/04 08:59:14;;;;;;;6.00;2.80;;;;;;;20.03;38.73;98365.98;106827;1277;25438;-80
2023/06/04 09:01:44;;;;;;;5.90;3.30;;;;;;;20.15;37.98;98367.58;106920;1277;22708;-80
2023/06/04 09:04:13;;;;;;;8.00;2.60;;;;;;;20.24;38.12;98361.95;106990;1277;22681;-80
2023/06/04 09:06:42;;;;;;;6.40;3.70;;;;;;;20.30;37.93;98365.07;106795;1277;23045;-81
2023/06/04 09:09:15;;;;;;;6.40;2.50;;;;;;;20.37;37.18;98367.07;106859;1277;22511;-81
2023/06/04 09:11:55;;;;;;;7.40;2.90;;;;;;;20.50;37.93;98369.81;107100;1277;24224;-80
2023/06/04 09:14:23;;;;;;;4.20;2.80;;;;;;;20.61;38.00;98361.71;107134;1277;22539;-81
2023/06/04 09:16:54;;;;;;;8.90;2.80;;;;;;;20.76;37.35;98365.92;106828;1277;22524;-81
2023/06/04 09:19:22;;;;;;;5.50;2.60;;;;;;;20.82;36.90;98366.86;106752;1277;22763;-82
2023/06/04 09:21:52;;;;;;;6.40;2.60;;;;;;;20.86;37.00;98368.20;107029;1277;23765;-81
2023/06/04 09:24:22;;;;;;;10.60;2.70;;;;;;;20.94;36.74;98369.39;107253;1277;22629;-80
2023/06/04 09:26:50;;;;;;;6.10;2.70;;;;;;;21.02;36.53;98373.88;107329;1277;24596;-79
2023/06/04 09:29:19;;;;;;;7.00;2.70;;;;;;;21.00;35.86;98373.84;107144;1277;22692;-78
2023/06/04 09:31:58;;;;;;;6.50;2.70;;;;;;;20.99;35.93;98374.20;107016;1273;25699;-79
2023/06/04 09:34:29;;;;;;;6.70;2.70;;;;;;;21.03;35.47;98370.94;107045;1277;25437;-80
2023/06/04 09:36:59;;;;;;;7.40;3.10;;;;;;;20.91;34.27;98371.37;107144;1277;24609;-79
2023/06/04 09:39:27;;;;;;;7.40;2.80;;;;;;;20.86;35.15;98372.18;107092;1277;22518;-79
2023/06/04 09:42:03;;;;;;;5.70;3.80;;;;;;;21.01;35.30;98370.89;106799;1277;22645;-78
2023/06/04 09:44:31;;;;;;;6.60;3.40;;;;;;;21.18;34.81;98369.88;106971;1277;26533;-78
2023/06/04 09:46:59;;;;;;;6.20;2.70;;;;;;;21.30;34.83;98370.69;106976;1277;22575;-79
2023/06/04 09:49:29;;;;;;;10.50;3.00;;;;;;;21.44;35.14;98372.51;106855;1277;23893;-79
2023/06/04 09:51:57;;;;;;;6.80;2.90;;;;;;;21.58;34.66;98371.30;106771;1277;25262;-79
2023/06/04 09:54:36;;;;;;;6.10;2.90;;;;;;;21.64;34.02;98363.36;106618;1277;25556;-80
2023/06/04 09:57:17;;;;;;;8.10;3.70;;;;;;;21.68;34.20;98358.74;106627;1277;23028;-78
2023/06/04 09:59:49;;;;;;;10.10;3.60;;;;;;;21.71;33.58;98359.13;106833;1277;22647;-79
2023/06/04 10:02:21;;;;;;;4.50;2.80;;;;;;;21.77;34.34;98360.80;106821;1277;22528;-79
2023/06/04 10:04:57;;;;;;;6.00;2.60;;;;;;;21.89;34.40;98360.09;106626;1277;25319;-80
2023/06/04 10:07:26;;;;;;;5.50;2.70;;;;;;;22.04;34.48;98354.13;106876;1277;22541;-80
2023/06/04 10:09:55;;;;;;;6.70;2.50;;;;;;;22.18;34.55;98347.16;106887;1277;25198;-80
2023/06/04 10:12:28;;;;;;;5.20;2.80;;;;;;;22.38;33.99;98347.08;106851;1277;22583;-80
2023/06/04 10:15:05;;;;;;;7.50;2.90;;;;;;;22.55;33.14;98349.95;106616;1277;23937;-80
2023/06/04 10:17:35;;;;;;;6.10;2.60;;;;;;;22.61;33.18;98350.67;106760;1277;22529;-80
2023/06/04 10:20:08;;;;;;;9.60;3.10;;;;;;;22.72;33.02;98353.91;106686;1277;25727;-80
2023/06/04 10:22:37;;;;;;;8.60;3.00;;;;;;;22.82;32.84;98353.83;106930;1277;25230;-79
2023/06/04 10:25:06;;;;;;;5.10;2.10;;;;;;;22.68;30.52;98349.76;106855;1274;22528;-80
2023/06/04 10:27:37;;;;;;;7.30;3.00;;;;;;;22.51;31.61;98351.29;106721;1277;23241;-80
2023/06/04 10:30:06;;;;;;;6.90;2.50;;;;;;;22.47;31.71;98349.89;107158;1274;23318;-80
2023/06/04 10:32:34;;;;;;;5.40;2.80;;;;;;;22.51;31.96;98347.76;107149;1269;22648;-80
2023/06/04 10:35:06;;;;;;;7.60;3.00;;;;;;;22.67;32.51;98348.73;107027;1277;22641;-80
2023/06/04 10:37:34;;;;;;;5.60;2.60;;;;;;;22.88;32.06;98348.96;107030;1277;22467;-80
2023/06/04 10:40:06;;;;;;;5.10;2.70;;;;;;;23.04;32.00;98351.37;107035;1277;22528;-81
2023/06/04 10:42:40;;;;;;;9.50;2.90;;;;;;;23.20;31.71;98346.80;106998;1277;25776;-80
2023/06/04 10:45:09;;;;;;;5.20;2.60;;;;;;;23.27;31.00;98344.38;107159;1277;24374;-80
2023/06/04 10:47:40;;;;;;;10.40;3.10;;;;;;;23.24;31.45;98343.02;107183;1277;23902;-79
2023/06/04 10:50:11;;;;;;;6.60;2.90;;;;;;;23.26;30.73;98337.23;107053;1277;23483;-79
2023/06/04 10:52:53;;;;;;;7.60;3.20;;;;;;;23.23;30.30;98340.95;107125;1277;22563;-79
2023/06/04 10:55:22;;;;;;;8.50;3.00;;;;;;;23.28;30.80;98342.67;107225;1277;22562;-79
2023/06/04 10:57:53;;;;;;;8.10;2.50;;;;;;;23.42;30.84;98339.40;107081;1277;22534;-79
2023/06/04 11:00:22;;;;;;;8.00;3.20;;;;;;;23.53;30.91;98339.52;107282;1271;22636;-79
2023/06/04 11:02:57;;;;;;;6.90;2.50;;;;;;;23.66;31.16;98340.16;107157;1277;25230;-79
2023/06/04 11:05:56;;;;;;;9.20;2.90;;;;;;;23.80;30.76;98340.59;107046;1277;25230;-79
2023/06/04 11:08:29;;;;;;;9.00;3.00;;;;;;;23.84;30.27;98340.71;106456;1285;22571;-80
2023/06/04 11:10:57;;;;;;;6.60;2.70;;;;;;;23.75;29.57;98341.88;106588;1285;22821;-80
2023/06/04 11:13:25;;;;;;;7.60;2.80;;;;;;;23.56;28.39;98343.19;106445;1286;22587;-79
2023/06/04 11:15:54;;;;;;;4.90;2.70;;;;;;;23.15;29.25;98340.45;106548;1286;24238;-79
2023/06/04 11:18:23;;;;;;;7.50;2.50;;;;;;;23.25;29.82;98338.30;106438;1286;22551;-79
2023/06/04 11:21:01;;;;;;;7.90;3.00;;;;;;;23.47;29.69;98336.09;106677;1286;22617;-79
2023/06/04 11:23:29;;;;;;;6.20;2.70;;;;;;;23.52;28.63;98336.14;106469;1286;22569;-79
2023/06/04 11:25:58;;;;;;;6.10;2.50;;;;;;;23.38;28.66;98331.73;106555;1286;22567;-81
2023/06/04 11:28:27;;;;;;;5.70;2.50;;;;;;;23.41;29.39;98333.08;106559;1285;25328;-81
2023/06/04 11:31:02;;;;;;;6.20;2.70;;;;;;;23.67;29.06;98333.74;106920;1273;22596;-82
2023/06/04 11:33:45;;;;;;;8.30;2.90;;;;;;;23.77;29.17;98334.65;107597;1267;22531;-82
2023/06/04 11:36:27;;;;;;;7.20;2.50;;;;;;;23.87;29.18;98328.64;107264;1285;22627;-82
2023/06/04 11:39:23;;;;;;;7.10;2.70;;;;;;;24.07;29.41;98331.60;106382;1286;24260;-81